Time;durP1;ratioP1;P1;durP2;ratioP2;P2;SDS_P1;SDS_P2;PMS_P1;PMS_P2;Temp;Humidity;BMP_temperature;BMP_pressure;BME280_temperature;BME280_humidity;BME280_pressure;Samples;Min_cycle;Max_cycle;Signal;HPM_P1;HPM_P2
2021/10/28 00:14:19;;;;;;;10.30;7.90;;;;;;;7.85;85.27;100040.88;5095500;28;20032;-70
2021/10/28 00:16:48;;;;;;;9.83;8.30;;;;;;;7.83;85.71;100047.31;5095486;28;20077;-66
2021/10/28 00:19:13;;;;;;;9.63;8.60;;;;;;;7.78;86.37;100043.31;5095256;28;20463;-67
2021/10/28 00:21:39;;;;;;;10.37;7.87;;;;;;;7.75;85.23;100038.34;5095053;28;20032;-66
2021/10/28 00:24:09;;;;;;;10.37;9.27;;;;;;;7.72;85.43;100038.66;5077096;28;20085;-67
2021/10/28 00:26:39;;;;;;;11.97;8.37;;;;;;;7.80;86.10;100056.41;5095262;28;20450;-66
2021/10/28 00:29:11;;;;;;;9.33;7.97;;;;;;;7.76;85.79;100060.38;5095210;28;20073;-68
2021/10/28 00:31:39;;;;;;;10.43;8.17;;;;;;;7.74;85.97;100063.19;5094889;28;20473;-66
2021/10/28 00:34:07;;;;;;;10.20;8.93;;;;;;;7.80;85.76;100082.09;5094885;28;20107;-67
2021/10/28 00:36:35;;;;;;;12.00;10.63;;;;;;;7.77;85.54;100077.94;5096005;28;20060;-68
2021/10/28 00:39:02;;;;;;;12.33;11.03;;;;;;;7.73;85.76;100080.09;5098774;28;20032;-68
2021/10/28 00:41:27;;;;;;;12.47;9.17;;;;;;;7.76;86.26;100084.22;5082508;28;20024;-67
2021/10/28 00:43:56;;;;;;;12.47;9.90;;;;;;;7.58;86.28;100068.47;5096121;28;20027;-67
2021/10/28 00:46:29;;;;;;;11.67;10.23;;;;;;;7.68;85.94;100093.00;5095503;28;20064;-67
2021/10/28 00:48:55;;;;;;;12.17;9.37;;;;;;;7.69;85.90;100092.00;5095193;28;20097;-65
2021/10/28 00:51:24;;;;;;;12.37;10.23;;;;;;;7.63;86.25;100108.56;5076754;28;20464;-66
2021/10/28 00:53:51;;;;;;;13.35;11.02;;;;;;;7.56;86.26;100107.53;5094936;28;20081;-70
2021/10/28 00:56:18;;;;;;;13.43;10.47;;;;;;;7.53;86.18;100117.63;5095812;28;20035;-66
2021/10/28 00:58:44;;;;;;;13.70;11.50;;;;;;;7.48;86.12;100110.13;5098422;28;20020;-68
2021/10/28 01:01:10;;;;;;;13.23;10.57;;;;;;;7.54;86.11;100132.53;5099119;28;20028;-67
2021/10/28 01:03:38;;;;;;;12.97;10.50;;;;;;;7.45;85.73;100142.25;5079263;28;20111;-65
2021/10/28 01:06:06;;;;;;;9.82;8.55;;;;;;;7.30;85.80;100135.88;5094639;28;20024;-68
2021/10/28 01:08:36;;;;;;;12.37;10.27;;;;;;;7.26;85.82;100142.47;5094293;28;20036;-66
2021/10/28 01:11:02;;;;;;;14.47;10.97;;;;;;;7.19;86.03;100146.72;5094203;28;20074;-67
2021/10/28 01:13:28;;;;;;;14.73;8.60;;;;;;;7.08;85.21;100150.47;5076046;28;20039;-68
2021/10/28 01:15:55;;;;;;;9.50;7.73;;;;;;;7.05;86.10;100156.06;5075882;28;20369;-66
2021/10/28 01:18:22;;;;;;;9.83;7.50;;;;;;;7.11;86.17;100172.16;5094134;28;20107;-71
2021/10/28 01:20:52;;;;;;;8.67;7.20;;;;;;;7.07;86.11;100154.09;5093962;28;20028;-66
2021/10/28 01:23:23;;;;;;;10.10;6.60;;;;;;;7.03;86.02;100160.69;5094324;28;20142;-66
2021/10/28 01:25:50;;;;;;;10.33;6.93;;;;;;;7.01;85.76;100181.19;5076212;28;20020;-67
2021/10/28 01:28:17;;;;;;;7.70;6.67;;;;;;;6.96;86.15;100189.59;5093715;28;20092;-64
2021/10/28 01:30:51;;;;;;;7.63;6.83;;;;;;;6.89;85.86;100193.81;5075446;28;20028;-67
2021/10/28 01:33:17;;;;;;;8.97;6.43;;;;;;;6.86;86.38;100207.38;5093612;28;20032;-66
2021/10/28 01:35:44;;;;;;;6.90;6.10;;;;;;;6.87;86.43;100206.38;5093874;28;20046;-69
2021/10/28 01:38:11;;;;;;;7.43;6.73;;;;;;;6.95;86.56;100225.00;5093595;28;20089;-69
2021/10/28 01:40:38;;;;;;;7.90;6.67;;;;;;;6.93;86.71;100226.94;5093504;28;20034;-70
2021/10/28 01:43:04;;;;;;;7.97;7.17;;;;;;;7.00;85.05;100241.25;5094009;28;20077;-66
2021/10/28 01:45:30;;;;;;;6.63;5.53;;;;;;;6.96;85.38;100255.78;5093678;28;20028;-69
2021/10/28 01:47:56;;;;;;;5.17;4.67;;;;;;;6.88;85.39;100262.78;5095295;28;20039;-67
2021/10/28 01:50:22;;;;;;;4.57;4.17;;;;;;;6.77;85.32;100269.97;5094170;28;20043;-67
2021/10/28 01:52:48;;;;;;;5.77;4.97;;;;;;;6.84;85.65;100272.84;5094946;28;20032;-67
2021/10/28 01:55:14;;;;;;;4.50;4.07;;;;;;;6.89;85.70;100281.16;5076385;28;20375;-65
2021/10/28 01:57:41;;;;;;;4.37;3.93;;;;;;;6.84;85.37;100289.56;5096477;28;20107;-65
2021/10/28 02:00:19;;;;;;;5.10;4.70;;;;;;;6.89;85.05;100305.00;5097210;28;20498;-65
2021/10/28 02:02:45;;;;;;;4.80;4.40;;;;;;;6.76;84.88;100293.94;5077730;28;20089;-68
2021/10/28 02:05:13;;;;;;;4.90;4.50;;;;;;;6.68;85.61;100315.03;5094459;28;20060;-66
2021/10/28 02:07:39;;;;;;;6.73;4.53;;;;;;;6.63;85.40;100326.03;5094508;28;20473;-68
2021/10/28 02:10:07;;;;;;;5.57;4.20;;;;;;;6.66;84.72;100351.41;5078723;28;20107;-64
2021/10/28 02:12:35;;;;;;;4.07;3.70;;;;;;;6.64;85.19;100345.41;5095049;28;20039;-67
2021/10/28 02:15:03;;;;;;;4.07;3.78;;;;;;;6.69;85.25;100356.41;5094489;28;20040;-66
2021/10/28 02:17:29;;;;;;;3.67;3.37;;;;;;;6.66;85.02;100354.06;5079217;28;20066;-68
2021/10/28 02:19:55;;;;;;;3.40;3.10;;;;;;;6.62;85.00;100352.66;5095018;28;20087;-67
2021/10/28 02:22:20;;;;;;;3.57;3.27;;;;;;;6.73;84.48;100384.22;5095187;28;20491;-69
2021/10/28 02:24:46;;;;;;;3.50;3.20;;;;;;;6.74;84.23;100385.91;5076007;28;20067;-66
2021/10/28 02:27:12;;;;;;;3.30;3.00;;;;;;;6.75;84.93;100387.56;5096956;28;20024;-68
2021/10/28 02:29:38;;;;;;;2.97;2.60;;;;;;;6.64;83.87;100388.56;5060344;28;20020;-66
2021/10/28 02:32:04;;;;;;;4.17;3.30;;;;;;;6.79;84.55;100418.03;5094021;28;20035;-67
2021/10/28 02:34:30;;;;;;;3.87;3.47;;;;;;;6.82;84.52;100430.97;5093107;28;20028;-66
2021/10/28 02:36:55;;;;;;;4.07;3.27;;;;;;;6.83;84.66;100432.66;5092797;28;20158;-66
2021/10/28 02:39:21;;;;;;;3.13;2.90;;;;;;;6.86;84.04;100448.22;5092352;28;20490;-69
2021/10/28 02:41:46;;;;;;;4.17;3.57;;;;;;;6.83;84.32;100456.47;5092697;28;20063;-65
2021/10/28 02:44:13;;;;;;;4.23;3.43;;;;;;;6.84;84.71;100472.22;5092865;28;20085;-70
2021/10/28 02:46:42;;;;;;;7.83;4.10;;;;;;;6.83;84.13;100469.72;5092774;28;20028;-67
2021/10/28 02:49:14;;;;;;;3.87;3.10;;;;;;;6.78;84.02;100477.25;5092961;28;20031;-67
2021/10/28 02:51:46;;;;;;;3.80;3.50;;;;;;;6.83;84.27;100496.19;5092513;28;20081;-70
2021/10/28 02:54:12;;;;;;;3.93;3.10;;;;;;;6.86;83.30;100511.78;5074653;28;20070;-65
2021/10/28 02:56:37;;;;;;;4.23;3.83;;;;;;;6.81;83.42;100506.91;5092636;28;20059;-66
2021/10/28 02:59:03;;;;;;;4.47;3.90;;;;;;;6.81;83.42;100525.44;5092569;28;20043;-67
2021/10/28 03:01:28;;;;;;;3.80;3.50;;;;;;;6.75;83.88;100528.66;5092704;28;20469;-67
2021/10/28 03:03:54;;;;;;;4.20;3.80;;;;;;;6.87;83.76;100536.44;5074659;28;20100;-69
2021/10/28 03:06:21;;;;;;;3.27;3.07;;;;;;;6.87;83.62;100557.59;5092919;28;20016;-66
2021/10/28 03:08:49;;;;;;;3.73;3.43;;;;;;;6.85;83.50;100557.75;5092980;28;20844;-67
2021/10/28 03:11:17;;;;;;;3.30;3.00;;;;;;;6.88;84.04;100562.75;5091949;28;20048;-64
2021/10/28 03:13:46;;;;;;;3.80;3.50;;;;;;;6.85;84.10;100563.03;5092395;28;20047;-68
2021/10/28 03:16:18;;;;;;;;;;;;;;;6.87;83.56;100574.31;5093243;28;20102;-64
2021/10/28 03:26:58;;;;;;;2.50;2.30;;;;;;;6.91;83.01;100617.22;5091957;28;20066;-67
2021/10/28 03:29:24;;;;;;;3.33;3.03;;;;;;;6.84;82.97;100620.44;5092314;28;20478;-67
2021/10/28 03:31:49;;;;;;;2.40;2.20;;;;;;;6.89;83.07;100638.53;5093047;28;20032;-67
2021/10/28 03:34:15;;;;;;;4.50;3.33;;;;;;;6.87;83.37;100637.84;5096616;28;20024;-67
2021/10/28 03:36:49;;;;;;;3.67;2.73;;;;;;;6.81;83.55;100635.78;5077955;28;20099;-66
2021/10/28 03:47:43;;;;;;;3.33;2.83;;;;;;;6.77;83.90;100668.81;5095928;28;20036;-67
2021/10/28 04:17:17;;;;;;;5.07;4.47;;;;;;;6.60;84.81;100731.19;5079813;28;20122;-68
2021/10/28 04:29:53;;;;;;;9.73;6.13;;;;;;;6.75;84.96;100777.47;5076789;28;20060;-68
2021/10/28 04:32:18;;;;;;;6.10;5.40;;;;;;;6.73;84.85;100774.13;5095338;28;20039;-66
2021/10/28 04:34:44;;;;;;;6.47;5.70;;;;;;;6.87;84.81;100795.84;5095095;28;20028;-70
2021/10/28 04:37:11;;;;;;;7.30;5.63;;;;;;;6.73;84.79;100770.63;5094897;28;20032;-67
2021/10/28 04:39:37;;;;;;;6.13;5.53;;;;;;;6.85;84.10;100801.28;5095089;28;20360;-66
2021/10/28 04:42:04;;;;;;;7.10;5.30;;;;;;;6.88;84.05;100822.19;5094904;28;20111;-67
2021/10/28 04:44:30;;;;;;;9.20;5.90;;;;;;;6.91;83.49;100818.44;5075967;28;20491;-66
2021/10/28 04:46:56;;;;;;;6.07;5.47;;;;;;;6.92;84.57;100813.00;5095954;28;20386;-66
2021/10/28 04:49:22;;;;;;;6.93;6.27;;;;;;;6.89;84.06;100818.56;5098442;28;20032;-68
2021/10/28 04:51:50;;;;;;;8.77;7.13;;;;;;;6.95;83.88;100833.94;5098038;28;20023;-66
2021/10/28 04:54:16;;;;;;;5.93;5.20;;;;;;;6.95;83.04;100841.88;5095323;28;20060;-68
2021/10/28 04:56:41;;;;;;;6.60;6.00;;;;;;;6.81;83.36;100823.72;5094654;28;20090;-67
2021/10/28 04:59:07;;;;;;;6.27;5.67;;;;;;;6.96;82.74;100848.84;5094517;28;20101;-67
2021/10/28 05:01:34;;;;;;;6.20;5.60;;;;;;;6.98;83.33;100868.06;5094623;28;20024;-70
2021/10/28 05:03:59;;;;;;;6.57;5.87;;;;;;;6.98;83.20;100869.88;5094545;28;20024;-68
2021/10/28 05:06:25;;;;;;;5.73;5.20;;;;;;;6.93;83.37;100861.47;5097637;28;20028;-65
2021/10/28 05:08:50;;;;;;;5.10;4.60;;;;;;;7.02;83.02;100885.34;5098183;28;20028;-68
2021/10/28 05:11:19;;;;;;;6.03;5.47;;;;;;;7.02;83.08;100873.94;5077780;28;20059;-67
2021/10/28 05:13:46;;;;;;;7.53;5.67;;;;;;;7.01;82.69;100888.97;5094969;28;20067;-64
2021/10/28 05:16:11;;;;;;;6.47;4.70;;;;;;;7.00;81.75;100899.72;5076383;28;20035;-66
2021/10/28 05:18:40;;;;;;;6.80;4.60;;;;;;;6.98;82.44;100902.50;5094350;28;20028;-68
2021/10/28 05:21:11;;;;;;;5.70;5.10;;;;;;;6.98;82.13;100907.78;5094162;28;20032;-68
2021/10/28 05:23:39;;;;;;;5.27;4.37;;;;;;;7.00;81.61;100910.31;5094089;28;20035;-69
2021/10/28 05:26:06;;;;;;;5.18;4.68;;;;;;;6.99;81.13;100914.75;5076204;28;20047;-68
2021/10/28 05:28:33;;;;;;;5.33;4.60;;;;;;;6.86;81.14;100934.50;5094200;28;20024;-68
2021/10/28 05:30:59;;;;;;;5.53;4.57;;;;;;;6.88;81.34;100937.84;5094013;28;20122;-68
2021/10/28 05:33:24;;;;;;;7.37;4.07;;;;;;;6.80;81.14;100938.50;5075792;28;20566;-67
2021/10/28 05:35:51;;;;;;;4.90;3.73;;;;;;;6.80;80.94;100938.50;5075629;28;20122;-67
2021/10/28 05:38:17;;;;;;;14.40;4.70;;;;;;;6.77;80.71;100947.56;5093680;28;20075;-68
2021/10/28 05:40:43;;;;;;;5.03;3.33;;;;;;;6.76;80.48;100958.28;5075422;28;20043;-70
2021/10/28 05:43:09;;;;;;;3.37;2.90;;;;;;;6.73;79.76;100961.19;5075522;28;20020;-71
2021/10/28 05:45:35;;;;;;;4.40;3.07;;;;;;;6.73;79.79;100969.16;5093113;28;20030;-69
2021/10/28 05:48:02;;;;;;;4.43;3.47;;;;;;;6.73;80.40;100979.72;5093312;28;20085;-68
2021/10/28 05:50:29;;;;;;;3.50;2.90;;;;;;;6.70;79.59;100986.13;5093390;28;20024;-69
2021/10/28 05:52:57;;;;;;;3.73;2.63;;;;;;;6.65;79.68;100990.13;5092684;28;20118;-70
2021/10/28 05:55:24;;;;;;;7.20;2.70;;;;;;;6.63;80.00;101002.66;5092878;28;20089;-70
2021/10/28 05:57:52;;;;;;;3.87;3.00;;;;;;;6.62;81.12;101003.63;5093336;28;20032;-67
2021/10/28 06:00:19;;;;;;;5.20;4.03;;;;;;;6.60;80.61;101014.34;5094326;28;20038;-69
2021/10/28 06:02:44;;;;;;;5.87;3.47;;;;;;;6.74;80.51;101024.59;5093118;28;20378;-70
2021/10/28 06:05:10;;;;;;;3.57;3.03;;;;;;;6.83;80.21;101033.53;5093581;28;20024;-69
2021/10/28 06:07:39;;;;;;;6.80;3.37;;;;;;;6.91;79.75;101040.81;5093224;28;20063;-71
2021/10/28 06:10:06;;;;;;;3.93;2.90;;;;;;;6.86;79.88;101040.38;5093475;28;20056;-70
2021/10/28 06:12:38;;;;;;;4.00;3.63;;;;;;;6.87;80.15;101042.91;5093659;28;20123;-70
2021/10/28 06:15:06;;;;;;;3.73;3.33;;;;;;;6.92;79.67;101064.53;5093335;28;20077;-71
2021/10/28 06:17:43;;;;;;;5.82;3.60;;;;;;;7.00;80.06;101061.25;5093132;28;20047;-70
2021/10/28 06:20:10;;;;;;;4.37;3.57;;;;;;;7.04;79.86;101073.22;5093092;28;20527;-71
2021/10/28 06:22:36;;;;;;;6.60;3.90;;;;;;;7.06;79.98;101084.53;5093048;28;20095;-71
2021/10/28 06:25:02;;;;;;;5.00;3.70;;;;;;;7.04;79.38;101076.72;5093312;28;20474;-70
2021/10/28 06:27:29;;;;;;;4.57;3.83;;;;;;;7.03;79.98;101082.16;5093003;28;20043;-70
2021/10/28 06:29:54;;;;;;;5.97;4.50;;;;;;;7.01;79.97;101079.63;5093079;28;20042;-70
2021/10/28 06:32:21;;;;;;;11.33;4.50;;;;;;;7.00;79.90;101080.59;5092834;28;20459;-69
2021/10/28 06:34:48;;;;;;;5.83;3.07;;;;;;;7.04;79.35;101110.31;5092905;28;20074;-71
2021/10/28 06:37:15;;;;;;;3.95;3.17;;;;;;;6.93;79.38;101108.56;5093319;28;20077;-69
2021/10/28 06:39:42;;;;;;;3.43;3.07;;;;;;;6.88;79.98;101118.72;5093242;28;20028;-70
2021/10/28 06:42:11;;;;;;;4.60;3.17;;;;;;;6.75;80.11;101128.66;5092810;28;20032;-69
2021/10/28 06:44:38;;;;;;;3.83;3.13;;;;;;;6.63;80.60;101129.69;5092477;28;20027;-71
2021/10/28 06:47:04;;;;;;;3.70;3.40;;;;;;;6.45;80.65;101114.38;5092762;28;20489;-69
2021/10/28 06:49:33;;;;;;;6.20;3.50;;;;;;;6.57;81.29;101125.75;5092669;28;20024;-71
2021/10/28 06:51:59;;;;;;;5.30;4.20;;;;;;;6.60;81.47;101135.22;5092491;28;20027;-71
2021/10/28 06:54:32;;;;;;;7.30;4.43;;;;;;;6.58;81.51;101131.88;5074805;28;20035;-71
2021/10/28 07:02:36;;;;;;;5.87;5.27;;;;;;;6.45;81.68;101126.78;5074786;28;20020;-73
2021/10/28 07:05:04;;;;;;;11.33;4.97;;;;;;;6.42;81.55;101134.97;5092822;28;20024;-72
2021/10/28 07:07:31;;;;;;;7.70;5.73;;;;;;;6.53;82.02;101156.06;5074144;28;20066;-70
2021/10/28 07:15:09;;;;;;;10.50;6.53;;;;;;;6.68;80.88;101146.03;5074439;28;20061;-64
2021/10/28 07:17:45;;;;;;;11.07;6.90;;;;;;;6.74;81.19;101164.88;5092783;28;20036;-65
2021/10/28 07:20:22;;;;;;;13.70;7.53;;;;;;;6.68;81.04;101146.88;5092513;28;20110;-67
2021/10/28 07:26:17;;;;;;;11.60;4.90;;;;;;;7.14;80.09;101199.44;5010161;28;20037;-68
2021/10/28 07:55:01;;;;;;;14.63;6.90;;;;;;;7.69;79.04;101215.91;5092219;28;20024;-66
2021/10/28 07:58:36;;;;;;;4.07;3.50;;;;;;;7.92;75.78;101258.16;5091554;28;20036;-66
2021/10/28 08:21:59;;;;;;;4.43;3.90;;;;;;;7.98;76.05;101300.06;5095229;28;20031;-64
2021/10/28 08:29:37;;;;;;;14.10;4.93;;;;;;;8.04;74.62;101299.53;5076847;28;20103;-65
2021/10/28 08:32:06;;;;;;;6.50;3.80;;;;;;;8.17;74.76;101313.44;5095010;28;20024;-62
2021/10/28 08:34:36;;;;;;;5.85;4.68;;;;;;;8.15;74.92;101317.19;5095030;28;20032;-64
2021/10/28 08:37:14;;;;;;;5.07;4.57;;;;;;;8.11;74.58;101327.22;5094980;28;20180;-65
2021/10/28 08:39:52;;;;;;;8.57;4.63;;;;;;;8.01;74.65;101331.63;5095157;28;20063;-63
2021/10/28 08:42:21;;;;;;;9.60;4.37;;;;;;;7.91;74.94;101320.97;5094939;28;20113;-67
2021/10/28 08:44:49;;;;;;;12.07;6.87;;;;;;;7.92;74.97;101343.88;5095030;28;20119;-65
2021/10/28 08:47:19;;;;;;;6.50;5.37;;;;;;;7.85;75.01;101348.03;5095089;28;20111;-63
2021/10/28 08:50:06;;;;;;;6.17;5.53;;;;;;;7.81;75.48;101340.47;5096867;28;20122;-63
2021/10/28 08:52:50;;;;;;;10.27;4.43;;;;;;;8.00;75.32;101337.91;5096560;28;20123;-63
2021/10/28 09:19:30;;;;;;;6.93;4.43;;;;;;;8.37;75.52;101354.16;5094461;28;20417;-65
2021/10/28 09:25:24;;;;;;;5.77;3.60;;;;;;;8.42;74.84;101382.97;5093927;28;20024;-63
2021/10/28 09:28:01;;;;;;;6.27;4.67;;;;;;;8.41;74.89;101395.41;5094173;28;20028;-63
2021/10/28 09:30:46;;;;;;;9.63;3.80;;;;;;;8.30;75.84;101390.97;5093994;28;20383;-66
2021/10/28 09:33:40;;;;;;;6.43;4.00;;;;;;;8.16;75.74;101394.00;5094011;28;20477;-65
2021/10/28 09:48:01;;;;;;;3.27;2.53;;;;;;;7.94;76.66;101428.63;5075449;28;20036;-62
2021/10/28 09:50:36;;;;;;;3.17;2.73;;;;;;;7.81;77.22;101415.56;5075292;28;20024;-63
2021/10/28 09:53:29;;;;;;;4.37;3.13;;;;;;;7.79;77.10;101412.16;5093596;28;20032;-63
2021/10/28 09:58:39;;;;;;;4.33;3.57;;;;;;;7.92;76.53;101422.59;5093097;28;20371;-63
2021/10/28 10:01:07;;;;;;;5.20;2.30;;;;;;;8.12;76.03;101439.50;5093336;28;20035;-67
2021/10/28 10:03:39;;;;;;;2.40;2.20;;;;;;;8.29;75.46;101441.53;5092965;28;20382;-63
2021/10/28 10:06:11;;;;;;;6.40;2.60;;;;;;;8.34;74.85;101455.28;5093399;28;20555;-64
2021/10/28 10:08:38;;;;;;;2.93;2.40;;;;;;;8.42;74.58;101462.59;5093202;28;20181;-64
2021/10/28 10:11:05;;;;;;;2.57;2.17;;;;;;;8.43;74.58;101469.59;5092819;28;20402;-62
2021/10/28 10:13:31;;;;;;;2.43;1.80;;;;;;;8.26;74.24;101461.22;5075087;28;20123;-65
2021/10/28 10:16:01;;;;;;;1.93;1.63;;;;;;;8.26;74.38;101458.56;5093571;28;20028;-65
2021/10/28 10:18:32;;;;;;;3.77;1.87;;;;;;;8.33;74.33;101474.78;5093350;28;20505;-67
2021/10/28 10:21:09;;;;;;;4.50;1.97;;;;;;;8.40;74.67;101470.69;5074884;28;20031;-68
2021/10/28 11:25:44;;;;;;;3.37;1.87;;;;;;;8.74;71.28;101532.38;5092510;28;20032;-64
2021/10/28 13:04:52;;;;;;;7.40;2.30;;;;;;;8.72;68.75;101640.53;4992381;28;20030;-66
2021/10/28 13:35:42;;;;;;;3.63;2.30;;;;;;;8.42;70.51;101621.88;5095918;28;20020;-66
2021/10/28 13:56:03;;;;;;;19.20;2.50;;;;;;;8.19;71.63;101610.47;5093531;28;20637;-66
2021/10/28 13:58:50;;;;;;;6.53;2.77;;;;;;;8.14;72.57;101605.53;5093190;28;20455;-65
2021/10/28 14:34:51;;;;;;;3.97;2.73;;;;;;;8.12;70.96;101657.88;5092504;28;20020;-67
2021/10/28 15:28:29;;;;;;;9.07;4.10;;;;;;;8.27;71.51;101622.13;5080453;28;20073;-64
2021/10/28 15:31:22;;;;;;;12.03;4.63;;;;;;;8.12;71.53;101604.00;5096065;28;20443;-66
2021/10/28 15:37:05;;;;;;;7.07;4.33;;;;;;;8.18;72.34;101606.97;5013932;28;20026;-66
2021/10/28 16:23:17;;;;;;;7.60;5.28;;;;;;;7.68;74.47;101601.31;5050524;28;20042;-71
2021/10/28 16:25:46;;;;;;;9.33;5.60;;;;;;;7.59;74.36;101591.47;5096743;28;20483;-80
2021/10/28 16:28:15;;;;;;;10.15;4.97;;;;;;;7.60;75.00;101587.00;5096456;28;20024;-73
2021/10/28 16:30:41;;;;;;;13.37;5.60;;;;;;;7.61;74.89;101597.47;5095517;28;20032;-70
2021/10/28 16:33:06;;;;;;;13.37;5.40;;;;;;;7.56;74.93;101591.72;5061057;28;20123;-71
2021/10/28 16:35:32;;;;;;;11.90;5.60;;;;;;;7.46;75.00;101580.97;5077598;28;20426;-72
2021/10/28 16:37:57;;;;;;;25.70;10.87;;;;;;;7.39;75.41;101565.69;5077559;28;20455;-71
2021/10/28 16:40:23;;;;;;;19.40;10.83;;;;;;;7.52;75.38;101595.56;5094979;28;20051;-75
2021/10/28 16:42:48;;;;;;;13.67;7.03;;;;;;;7.51;75.04;101604.47;5095383;28;20028;-75
2021/10/28 16:45:14;;;;;;;12.30;6.57;;;;;;;7.47;75.31;101592.41;5077982;28;20020;-76
2021/10/28 16:47:40;;;;;;;11.43;5.87;;;;;;;7.52;75.25;101624.72;5096014;28;20349;-76
2021/10/28 16:50:07;;;;;;;19.30;8.67;;;;;;;7.50;75.13;101613.38;5110450;28;20024;-73
2021/10/28 16:52:37;;;;;;;12.02;6.97;;;;;;;7.53;75.09;101609.66;5073988;28;20077;-72
2021/10/28 16:55:03;;;;;;;19.13;8.33;;;;;;;7.52;75.72;101606.19;5104408;28;20037;-74
2021/10/28 16:57:29;;;;;;;11.60;7.30;;;;;;;7.47;74.83;101595.06;5096591;28;20431;-76
2021/10/28 16:59:54;;;;;;;10.90;7.57;;;;;;;7.49;75.11;101609.03;5097217;28;20476;-76
2021/10/28 17:02:20;;;;;;;14.53;7.47;;;;;;;7.45;75.12;101610.25;5096088;28;20032;-77
2021/10/28 17:04:46;;;;;;;11.50;7.37;;;;;;;7.54;75.71;101629.91;5060705;28;20068;-77
2021/10/28 17:07:13;;;;;;;13.03;7.73;;;;;;;7.58;74.90;101628.69;5098090;28;20031;-73
2021/10/28 17:09:39;;;;;;;15.73;7.87;;;;;;;7.56;75.06;101634.13;5084104;28;20051;-73
2021/10/28 17:12:08;;;;;;;11.27;7.03;;;;;;;7.55;75.19;101632.44;5080864;28;20044;-72
2021/10/28 17:14:34;;;;;;;22.20;8.95;;;;;;;7.36;75.92;101600.38;5080926;28;20361;-74
2021/10/28 17:16:59;;;;;;;8.83;6.23;;;;;;;7.52;75.71;101637.97;5076721;28;20036;-76
2021/10/28 17:19:26;;;;;;;12.57;6.73;;;;;;;7.54;75.83;101641.34;5073654;28;20025;-76
2021/10/28 17:21:52;;;;;;;12.10;6.23;;;;;;;7.45;76.17;101623.50;5074715;28;20098;-75
2021/10/28 17:27:01;;;;;;;11.47;6.33;;;;;;;7.49;76.45;101609.03;5075094;28;20028;-78
2021/10/28 17:29:27;;;;;;;10.57;6.87;;;;;;;7.53;76.15;101614.97;5074874;28;20039;-75
2021/10/28 17:31:55;;;;;;;11.00;6.37;;;;;;;7.39;76.27;101584.25;5073870;28;20032;-75
2021/10/28 17:34:26;;;;;;;13.53;7.13;;;;;;;7.49;76.20;101601.09;5074245;28;20021;-78
2021/10/28 17:36:54;;;;;;;11.02;6.68;;;;;;;7.42;76.28;101602.53;5073734;28;20105;-77
2021/10/28 17:39:21;;;;;;;11.00;7.40;;;;;;;7.43;76.53;101602.41;5074777;28;20534;-77
2021/10/28 17:41:49;;;;;;;11.80;7.27;;;;;;;7.38;76.17;101571.97;5074651;28;20472;-77
2021/10/28 17:44:15;;;;;;;13.70;8.40;;;;;;;7.44;76.45;101579.41;5075067;28;20024;-81
2021/10/28 17:46:41;;;;;;;15.27;7.70;;;;;;;7.40;76.88;101570.88;5074398;28;20048;-77
2021/10/28 17:49:06;;;;;;;13.40;7.70;;;;;;;7.44;76.37;101571.47;5075801;28;20170;-76
2021/10/28 17:51:35;;;;;;;13.73;8.07;;;;;;;7.35;76.53;101564.25;5071649;28;20035;-69
2021/10/28 17:54:09;;;;;;;15.20;8.77;;;;;;;7.37;76.66;101557.03;5074956;28;20023;-74
2021/10/28 17:56:36;;;;;;;13.43;7.67;;;;;;;7.39;76.57;101558.59;5074731;28;20029;-73
2021/10/28 17:59:05;;;;;;;13.00;6.90;;;;;;;7.22;76.43;101518.50;5071761;28;20031;-76
2021/10/28 18:01:35;;;;;;;16.10;6.77;;;;;;;7.38;76.49;101540.16;5073759;28;20454;-76
2021/10/28 18:04:02;;;;;;;10.17;8.10;;;;;;;7.35;76.53;101543.91;5073841;28;20059;-75
2021/10/28 18:06:32;;;;;;;11.47;7.47;;;;;;;7.34;77.25;101528.13;5073671;28;20431;-72
2021/10/28 18:09:02;;;;;;;12.30;6.50;;;;;;;7.35;76.74;101529.81;5072241;28;20020;-72
2021/10/28 18:11:29;;;;;;;11.53;6.60;;;;;;;7.34;76.74;101518.38;5085861;28;20075;-75
2021/10/28 18:14:19;;;;;;;9.43;6.47;;;;;;;7.25;76.80;101508.50;5058873;28;20427;-79
2021/10/28 18:17:08;;;;;;;10.80;6.27;;;;;;;7.33;76.92;101545.00;5050593;28;20066;-80
2021/10/28 18:19:34;;;;;;;13.47;5.70;;;;;;;7.26;76.77;101541.16;5093172;28;20020;-72
2021/10/28 18:22:00;;;;;;;7.40;5.23;;;;;;;6.89;77.12;101488.41;5074753;28;20117;-78
2021/10/28 18:24:27;;;;;;;15.43;5.67;;;;;;;7.16;77.20;101541.03;5075150;28;20032;-75
2021/10/28 18:26:54;;;;;;;10.37;5.93;;;;;;;7.03;77.12;101509.38;5058146;28;20024;-75
2021/10/28 18:29:19;;;;;;;7.70;5.63;;;;;;;7.19;77.37;101531.97;5074038;28;20471;-72
2021/10/28 18:31:45;;;;;;;11.30;6.30;;;;;;;7.20;77.91;101531.00;5092041;28;20038;-76
2021/10/28 18:34:12;;;;;;;9.37;5.73;;;;;;;7.21;77.37;101536.19;5092667;28;20371;-72
2021/10/28 18:36:39;;;;;;;10.17;5.30;;;;;;;7.17;77.31;101523.31;5092861;28;20035;-71
2021/10/28 18:39:09;;;;;;;8.70;5.30;;;;;;;7.30;77.77;101542.59;5092644;28;20038;-71
2021/10/28 18:41:34;;;;;;;8.00;5.70;;;;;;;7.34;77.10;101544.03;5092438;28;20100;-72
2021/10/28 18:44:00;;;;;;;10.00;5.70;;;;;;;7.35;77.18;101538.59;5092419;28;20471;-66
2021/10/28 18:46:25;;;;;;;8.13;5.83;;;;;;;7.36;77.04;101531.50;5092426;28;20074;-70
2021/10/28 18:49:00;;;;;;;10.67;5.67;;;;;;;7.33;77.45;101521.16;5092375;28;20081;-69
2021/10/28 18:51:27;;;;;;;9.03;5.43;;;;;;;7.27;76.92;101503.09;5092062;28;20412;-70
2021/10/28 18:53:53;;;;;;;9.93;5.47;;;;;;;7.36;77.30;101515.59;5092013;28;20047;-66
2021/10/28 18:56:19;;;;;;;9.60;5.00;;;;;;;7.36;77.04;101505.00;5092228;28;20038;-65
2021/10/28 18:58:45;;;;;;;10.63;5.53;;;;;;;7.30;76.88;101489.59;5091815;28;20031;-65
2021/10/28 19:01:16;;;;;;;8.07;5.10;;;;;;;7.31;77.52;101497.41;5089910;28;20020;-63
2021/10/28 19:03:43;;;;;;;7.50;4.70;;;;;;;7.39;77.47;101507.38;5090620;28;20528;-67
2021/10/28 19:06:11;;;;;;;6.90;4.63;;;;;;;7.37;77.30;101496.06;5091477;28;20032;-65
2021/10/28 19:08:38;;;;;;;6.00;4.33;;;;;;;7.49;77.46;101510.13;5072760;28;20070;-67
2021/10/28 19:11:09;;;;;;;9.63;5.30;;;;;;;7.54;76.92;101500.03;5073415;28;20479;-66
2021/10/28 19:14:04;;;;;;;7.67;4.90;;;;;;;7.54;76.88;101498.22;5080472;28;20289;-65
2021/10/28 19:16:30;;;;;;;6.17;4.30;;;;;;;7.48;77.25;101488.09;5091592;28;20060;-67
2021/10/28 19:18:55;;;;;;;7.10;4.57;;;;;;;7.48;76.70;101485.44;5091597;28;20112;-67
2021/10/28 19:21:21;;;;;;;10.60;5.57;;;;;;;7.53;76.60;101477.13;5055269;28;20054;-67
2021/10/28 19:23:47;;;;;;;5.73;4.33;;;;;;;7.49;76.38;101467.72;5090932;28;20031;-66
2021/10/28 19:26:13;;;;;;;8.40;4.70;;;;;;;7.59;77.08;101479.28;5072658;28;20023;-66
2021/10/28 19:28:42;;;;;;;7.07;4.13;;;;;;;7.63;76.74;101465.63;5091259;28;20020;-67
2021/10/28 19:31:14;;;;;;;7.63;4.37;;;;;;;7.56;76.62;101448.56;5090962;28;20036;-65
2021/10/28 19:33:47;;;;;;;9.43;5.40;;;;;;;7.54;77.24;101433.75;5091742;28;20051;-67
2021/10/28 19:46:46;;;;;;;6.50;4.60;;;;;;;7.66;78.13;101462.72;5090298;28;20028;-68
2021/10/28 19:49:14;;;;;;;6.87;4.77;;;;;;;7.60;77.90;101451.81;5072480;28;20479;-66
2021/10/28 19:51:39;;;;;;;6.63;4.00;;;;;;;7.64;78.00;101456.72;5090598;28;20020;-66
2021/10/28 19:54:09;;;;;;;7.27;4.23;;;;;;;7.56;78.29;101440.63;5072630;28;20028;-65
2021/10/28 19:56:35;;;;;;;6.67;4.57;;;;;;;7.56;78.31;101437.13;5091107;28;20069;-65
2021/10/28 19:59:04;;;;;;;5.80;4.70;;;;;;;7.62;79.31;101452.50;5072452;28;20463;-68
2021/10/28 20:04:15;;;;;;;7.63;4.83;;;;;;;7.60;79.39;101438.53;5072534;28;20471;-66
2021/10/28 20:07:00;;;;;;;10.87;5.73;;;;;;;7.49;78.98;101431.47;5090830;28;20036;-68
2021/10/28 20:20:53;;;;;;;6.63;4.20;;;;;;;7.46;80.12;101376.91;5093899;28;20054;-67
2021/10/28 20:23:19;;;;;;;6.47;4.80;;;;;;;7.64;80.23;101403.69;5075944;28;20498;-68
2021/10/28 20:25:54;;;;;;;5.40;4.43;;;;;;;7.68;80.20;101409.59;5059222;28;20042;-70
2021/10/28 20:28:20;;;;;;;6.27;4.53;;;;;;;7.67;80.35;101398.13;5055619;28;20025;-67
2021/10/28 20:30:55;;;;;;;8.67;4.37;;;;;;;7.61;81.24;101385.41;5093872;28;20032;-65
2021/10/28 20:33:22;;;;;;;9.80;4.80;;;;;;;7.68;80.98;101388.38;5074558;28;20431;-67
2021/10/28 20:38:30;;;;;;;6.90;5.07;;;;;;;7.65;81.68;101378.88;5093107;28;20027;-68
2021/10/28 20:40:56;;;;;;;6.93;5.07;;;;;;;7.64;81.71;101379.84;5057524;28;20024;-68